Time;durP1;ratioP1;P1;durP2;ratioP2;P2;SDS_P1;SDS_P2;PMS_P1;PMS_P2;Temp;Humidity;BMP_temperature;BMP_pressure;BME280_temperature;BME280_humidity;BME280_pressure;Samples;Min_cycle;Max_cycle;Signal;HPM_P1;HPM_P2
2022/05/22 00:01:41;;;;;;;6.53;3.00;;;;;;;11.73;100.00;96429.56;5032344;28;20030;-77
2022/05/22 00:04:08;;;;;;;6.40;2.73;;;;;;;11.71;100.00;96428.09;5012753;28;20022;-77
2022/05/22 00:06:35;;;;;;;6.17;3.17;;;;;;;11.64;100.00;96429.72;5046478;28;20046;-78
2022/05/22 00:09:01;;;;;;;7.60;3.57;;;;;;;11.57;100.00;96427.72;5012623;28;20025;-77
2022/05/22 00:11:27;;;;;;;6.07;3.60;;;;;;;11.60;100.00;96433.63;5003447;28;20100;-78
2022/05/22 00:13:53;;;;;;;7.50;3.60;;;;;;;11.64;100.00;96443.72;5019585;28;20044;-77
2022/05/22 00:16:37;;;;;;;7.23;3.53;;;;;;;11.46;100.00;96430.63;5020139;28;20427;-78
2022/05/22 00:19:06;;;;;;;8.33;3.63;;;;;;;11.25;100.00;96436.31;5009499;28;20033;-77
2022/05/22 00:21:33;;;;;;;9.10;3.93;;;;;;;11.41;100.00;96447.91;5016856;28;20075;-77
2022/05/22 00:23:59;;;;;;;9.67;3.97;;;;;;;11.40;100.00;96448.88;4999878;28;20033;-77
2022/05/22 00:26:25;;;;;;;7.53;3.47;;;;;;;11.37;100.00;96457.94;5030782;28;20050;-78
2022/05/22 00:28:51;;;;;;;8.47;3.63;;;;;;;11.33;100.00;96451.31;5020800;28;20548;-78
2022/05/22 00:31:17;;;;;;;6.40;3.23;;;;;;;11.41;100.00;96456.63;5024872;28;20034;-79
2022/05/22 00:33:43;;;;;;;8.73;3.53;;;;;;;11.28;100.00;96450.97;5027999;28;20040;-78
2022/05/22 00:36:09;;;;;;;6.77;3.30;;;;;;;11.18;100.00;96448.47;5033177;28;20037;-77
2022/05/22 00:38:35;;;;;;;6.50;2.97;;;;;;;11.06;100.00;96454.97;5024526;28;20018;-78
2022/05/22 00:41:01;;;;;;;9.57;3.13;;;;;;;11.12;100.00;96451.72;5019614;28;20372;-77
2022/05/22 00:43:27;;;;;;;6.60;3.00;;;;;;;11.07;100.00;96444.31;5027419;28;20181;-77
2022/05/22 00:45:53;;;;;;;11.97;3.20;;;;;;;10.84;100.00;96443.19;5021358;28;20364;-78
2022/05/22 00:48:19;;;;;;;6.23;3.03;;;;;;;10.97;100.00;96433.09;5027206;28;20092;-77
2022/05/22 00:50:44;;;;;;;6.27;3.20;;;;;;;11.09;100.00;96429.16;5028489;28;20026;-78
2022/05/22 00:53:16;;;;;;;7.77;3.00;;;;;;;10.90;100.00;96425.94;5012103;28;20655;-77
2022/05/22 00:55:42;;;;;;;5.40;3.30;;;;;;;10.78;100.00;96422.78;5026923;28;20045;-79
2022/05/22 00:58:14;;;;;;;8.87;3.47;;;;;;;10.60;100.00;96421.03;5023621;28;20068;-76
2022/05/22 01:00:40;;;;;;;4.40;2.40;;;;;;;10.79;100.00;96424.41;5020894;28;20052;-78
2022/05/22 01:03:27;;;;;;;6.87;2.93;;;;;;;10.57;100.00;96418.72;5020406;28;20030;-77
2022/05/22 01:05:54;;;;;;;7.93;2.63;;;;;;;10.61;100.00;96417.41;5042256;28;20072;-79
2022/05/22 01:08:20;;;;;;;6.23;2.53;;;;;;;10.55;100.00;96418.03;5017233;28;20092;-77
2022/05/22 01:10:49;;;;;;;6.00;2.07;;;;;;;10.52;100.00;96413.06;5023208;28;20022;-76
2022/05/22 01:13:20;;;;;;;6.60;2.90;;;;;;;10.47;100.00;96415.34;5025698;28;20029;-76
2022/05/22 01:15:46;;;;;;;7.57;2.47;;;;;;;10.49;100.00;96409.94;5029628;28;20042;-76
2022/05/22 01:18:13;;;;;;;5.33;2.63;;;;;;;10.50;100.00;96404.53;4996943;28;20045;-78
2022/05/22 01:20:48;;;;;;;6.43;2.43;;;;;;;10.52;100.00;96412.25;5023153;28;20037;-76
2022/05/22 01:23:15;;;;;;;5.00;2.47;;;;;;;10.54;100.00;96408.50;5020094;28;20029;-76
2022/05/22 01:25:40;;;;;;;6.30;2.80;;;;;;;10.34;100.00;96410.50;5024316;28;20045;-76
2022/05/22 01:28:09;;;;;;;6.07;2.33;;;;;;;10.37;100.00;96406.75;5019385;28;20071;-76
2022/05/22 01:30:35;;;;;;;8.37;2.73;;;;;;;10.46;100.00;96411.09;5028705;28;20100;-77
2022/05/22 01:33:03;;;;;;;10.77;3.07;;;;;;;10.36;100.00;96413.81;5018155;28;20029;-77
2022/05/22 01:35:30;;;;;;;5.73;2.63;;;;;;;10.39;100.00;96412.66;5025141;28;20029;-77
2022/05/22 01:38:00;;;;;;;6.17;2.70;;;;;;;10.41;100.00;96413.34;5025513;28;20090;-76
2022/05/22 01:40:27;;;;;;;3.67;2.20;;;;;;;10.37;100.00;96409.38;5015395;28;20406;-77
2022/05/22 01:42:52;;;;;;;5.67;2.47;;;;;;;10.37;100.00;96407.56;5026309;28;20138;-77
2022/05/22 01:45:24;;;;;;;5.40;2.83;;;;;;;10.37;100.00;96391.78;5014723;28;20037;-77
2022/05/22 01:47:50;;;;;;;5.90;3.00;;;;;;;10.21;100.00;96398.69;5026262;28;20041;-77
2022/05/22 01:50:17;;;;;;;6.70;3.33;;;;;;;10.34;100.00;96396.53;5008651;28;20033;-77
2022/05/22 01:52:43;;;;;;;6.70;3.03;;;;;;;10.24;100.00;96398.41;5026248;28;20045;-77
2022/05/22 01:55:12;;;;;;;5.63;3.33;;;;;;;10.19;100.00;96406.72;5025915;28;20035;-77
2022/05/22 01:57:41;;;;;;;7.10;2.80;;;;;;;10.09;100.00;96395.47;5004996;28;20052;-76
2022/05/22 02:00:13;;;;;;;6.30;3.17;;;;;;;10.06;100.00;96391.38;5017409;28;20029;-76
2022/05/22 02:02:42;;;;;;;7.37;2.77;;;;;;;10.08;100.00;96394.66;5018860;28;20115;-77
2022/05/22 02:05:16;;;;;;;5.53;1.88;;;;;;;10.10;100.00;96395.34;5012624;28;20071;-76
2022/05/22 02:10:29;;;;;;;6.40;2.70;;;;;;;10.03;100.00;96381.16;5026986;28;20034;-76
2022/05/22 02:12:55;;;;;;;6.67;2.80;;;;;;;10.05;100.00;96383.63;5029350;28;20460;-76
2022/05/22 02:15:21;;;;;;;5.70;2.43;;;;;;;10.02;100.00;96390.00;5033002;28;20030;-76
2022/05/22 02:17:48;;;;;;;7.97;3.33;;;;;;;9.98;100.00;96393.09;5023838;28;20033;-76
2022/05/22 02:20:14;;;;;;;3.50;2.20;;;;;;;10.05;100.00;96388.88;5031382;28;20108;-75
2022/05/22 02:22:42;;;;;;;7.70;2.93;;;;;;;10.02;100.00;96397.06;5029639;28;20029;-77
2022/05/22 02:25:10;;;;;;;6.67;2.37;;;;;;;10.12;100.00;96390.72;5010640;28;20032;-78
2022/05/22 02:27:36;;;;;;;4.90;2.50;;;;;;;10.21;100.00;96382.94;5024479;28;20026;-78
2022/05/22 02:30:04;;;;;;;7.60;3.83;;;;;;;10.15;100.00;96386.97;5007578;28;20038;-77
2022/05/22 02:32:30;;;;;;;6.17;3.17;;;;;;;9.93;100.00;96383.03;5023438;28;20705;-77
2022/05/22 02:34:56;;;;;;;10.20;3.93;;;;;;;9.87;100.00;96376.59;5024435;28;20116;-77
2022/05/22 02:37:21;;;;;;;5.77;3.23;;;;;;;9.81;100.00;96365.84;5014131;28;20418;-78
2022/05/22 02:39:48;;;;;;;5.10;2.77;;;;;;;9.91;100.00;96366.59;5015127;28;20491;-77
2022/05/22 02:42:49;;;;;;;4.73;2.57;;;;;;;9.89;100.00;96365.91;5023337;28;20044;-77
2022/05/22 02:45:23;;;;;;;6.40;2.70;;;;;;;9.84;100.00;96363.75;5004738;28;20033;-77
2022/05/22 02:47:50;;;;;;;6.50;2.97;;;;;;;9.91;100.00;96358.72;5029539;28;20103;-77
2022/05/22 02:50:18;;;;;;;9.43;2.93;;;;;;;9.87;100.00;96349.50;5029894;28;20661;-77
2022/05/22 02:52:44;;;;;;;8.07;3.20;;;;;;;9.82;100.00;96357.00;5026885;28;20037;-78
2022/05/22 02:55:10;;;;;;;8.63;3.60;;;;;;;9.84;100.00;96357.69;5025273;28;20033;-78
2022/05/22 02:57:38;;;;;;;8.47;3.07;;;;;;;9.79;100.00;96357.28;5022677;28;20057;-78
2022/05/22 03:00:20;;;;;;;4.90;2.57;;;;;;;9.82;100.00;96357.00;5024711;28;20074;-77
2022/05/22 03:02:52;;;;;;;5.67;3.03;;;;;;;9.94;100.00;96350.53;5014685;28;20032;-77
2022/05/22 03:05:19;;;;;;;5.27;3.00;;;;;;;9.99;100.00;96353.50;5023760;28;20178;-77
2022/05/22 03:07:45;;;;;;;5.83;3.40;;;;;;;9.85;100.00;96351.44;4999376;28;20084;-78
2022/05/22 03:10:31;;;;;;;6.83;3.43;;;;;;;9.73;100.00;96350.88;5026586;28;20041;-77
2022/05/22 03:12:57;;;;;;;6.47;3.23;;;;;;;9.87;100.00;96349.50;5014738;28;20056;-77
2022/05/22 03:15:28;;;;;;;5.60;2.60;;;;;;;9.89;100.00;96347.53;5024537;28;20083;-78
2022/05/22 03:17:54;;;;;;;7.20;2.97;;;;;;;9.81;100.00;96353.53;5040420;28;20102;-77
2022/05/22 03:20:20;;;;;;;5.17;2.63;;;;;;;9.83;100.00;96332.41;5031147;28;20037;-76
2022/05/22 03:22:46;;;;;;;6.13;2.97;;;;;;;9.87;100.00;96331.13;5009422;28;20025;-77
2022/05/22 03:25:13;;;;;;;7.43;2.73;;;;;;;9.79;100.00;96338.91;5018921;28;20018;-78
2022/05/22 03:27:39;;;;;;;5.37;3.00;;;;;;;9.80;100.00;96337.94;5021704;28;20034;-77
2022/05/22 03:30:06;;;;;;;14.33;3.23;;;;;;;9.72;100.00;96330.00;5024134;28;20034;-77
2022/05/22 03:32:32;;;;;;;6.17;2.70;;;;;;;9.83;100.00;96322.72;5023408;28;20117;-77
2022/05/22 03:35:00;;;;;;;4.63;2.20;;;;;;;9.86;100.00;96332.91;5016040;28;20083;-76
2022/05/22 03:37:27;;;;;;;7.00;2.70;;;;;;;9.98;100.00;96325.59;5022937;28;20022;-77
2022/05/22 03:39:57;;;;;;;4.97;2.73;;;;;;;9.96;100.00;96318.84;4994677;28;20026;-77
2022/05/22 03:42:27;;;;;;;7.07;2.57;;;;;;;9.91;100.00;96306.19;5018243;28;20022;-77
2022/05/22 03:44:53;;;;;;;7.57;2.60;;;;;;;9.97;100.00;96308.19;5029412;28;20049;-79
2022/05/22 03:47:19;;;;;;;8.00;3.20;;;;;;;9.97;100.00;96302.13;5019565;28;20061;-79
2022/05/22 03:50:13;;;;;;;10.33;3.30;;;;;;;10.02;100.00;96299.84;5022215;28;20128;-79
2022/05/22 03:52:42;;;;;;;9.50;4.43;;;;;;;10.14;100.00;96301.25;5021127;28;20733;-76
2022/05/22 03:55:18;;;;;;;7.37;2.70;;;;;;;10.16;100.00;96301.94;5029336;28;20029;-77
2022/05/22 03:57:47;;;;;;;4.80;2.77;;;;;;;10.17;100.00;96302.75;5019118;28;20034;-76
2022/05/22 04:00:14;;;;;;;6.73;2.60;;;;;;;10.24;100.00;96306.41;4997015;28;20168;-77
2022/05/22 04:02:44;;;;;;;6.80;2.53;;;;;;;10.27;100.00;96301.69;5020013;28;20048;-76
2022/05/22 04:05:12;;;;;;;5.80;2.33;;;;;;;10.28;100.00;96299.88;5028569;28;20029;-76
2022/05/22 04:07:40;;;;;;;4.23;2.13;;;;;;;10.30;100.00;96292.69;5005246;28;20065;-76
2022/05/22 04:10:09;;;;;;;7.17;2.90;;;;;;;10.37;100.00;96291.06;5030310;28;20021;-76
2022/05/22 04:12:38;;;;;;;5.23;2.43;;;;;;;10.51;100.00;96297.53;5011490;28;20103;-77
2022/05/22 04:15:08;;;;;;;9.03;3.33;;;;;;;10.58;100.00;96301.19;5026009;28;20036;-76
2022/05/22 04:17:35;;;;;;;6.77;2.40;;;;;;;10.67;100.00;96310.78;5030589;28;20029;-76
2022/05/22 04:20:11;;;;;;;9.43;2.80;;;;;;;10.75;100.00;96309.97;5024802;28;20908;-76
2022/05/22 04:25:25;;;;;;;6.73;2.57;;;;;;;10.84;100.00;96301.97;5016486;28;20121;-76
2022/05/22 04:27:53;;;;;;;6.43;2.57;;;;;;;10.92;100.00;96303.78;5023829;28;20037;-76
2022/05/22 04:30:20;;;;;;;6.30;2.37;;;;;;;11.05;100.00;96304.16;5025723;28;20400;-77
2022/05/22 04:32:56;;;;;;;6.73;2.87;;;;;;;11.08;100.00;96293.31;5018811;28;20029;-77
2022/05/22 04:35:22;;;;;;;5.20;2.57;;;;;;;11.17;100.00;96286.28;5009299;28;20376;-76
2022/05/22 04:37:49;;;;;;;7.57;2.50;;;;;;;11.28;100.00;96282.50;5031247;28;20037;-77
2022/05/22 04:40:15;;;;;;;7.17;2.40;;;;;;;11.29;100.00;96284.13;5028884;28;20017;-79
2022/05/22 04:42:42;;;;;;;4.67;1.97;;;;;;;11.47;100.00;96291.91;5014167;28;20084;-77
2022/05/22 04:45:09;;;;;;;7.53;2.27;;;;;;;11.48;100.00;96278.56;5022988;28;20036;-76
2022/05/22 04:47:42;;;;;;;5.70;2.70;;;;;;;11.68;100.00;96286.16;5027530;28;20022;-77
2022/05/22 04:50:16;;;;;;;4.77;2.47;;;;;;;11.82;100.00;96272.31;5021888;28;20076;-76
2022/05/22 04:53:04;;;;;;;3.43;2.17;;;;;;;11.95;100.00;96279.75;5019680;28;20034;-76
2022/05/22 04:55:46;;;;;;;6.53;2.30;;;;;;;11.99;100.00;96281.06;5033568;28;20034;-76
2022/05/22 04:58:14;;;;;;;6.47;2.43;;;;;;;12.22;100.00;96275.91;5007090;28;20535;-77
2022/05/22 05:00:40;;;;;;;6.53;2.40;;;;;;;12.21;100.00;96271.63;5020807;28;20048;-76
2022/05/22 05:03:10;;;;;;;5.77;2.60;;;;;;;12.32;100.00;96271.25;5013751;28;20396;-77
2022/05/22 05:05:36;;;;;;;4.83;2.00;;;;;;;12.41;100.00;96270.25;5029083;28;20095;-77
2022/05/22 05:08:03;;;;;;;7.53;3.23;;;;;;;12.53;100.00;96277.78;5015880;28;20446;-76
2022/05/22 05:10:47;;;;;;;4.37;2.10;;;;;;;12.76;100.00;96268.13;5021677;28;20057;-77
2022/05/22 05:13:28;;;;;;;5.10;2.60;;;;;;;12.91;100.00;96279.63;5022220;28;20030;-76
2022/05/22 05:16:13;;;;;;;9.03;2.40;;;;;;;13.05;100.00;96279.88;5005493;28;20040;-76
2022/05/22 05:18:45;;;;;;;4.77;2.50;;;;;;;13.27;100.00;96275.66;5043557;28;20554;-78
2022/05/22 05:21:13;;;;;;;4.17;2.23;;;;;;;13.10;100.00;96269.63;5044252;28;20725;-77
2022/05/22 05:23:41;;;;;;;6.97;2.43;;;;;;;13.26;100.00;96274.84;5033816;28;20041;-79
2022/05/22 05:26:16;;;;;;;10.00;2.60;;;;;;;13.25;100.00;96267.91;5012777;28;20490;-76
2022/05/22 05:28:42;;;;;;;5.50;2.30;;;;;;;13.29;100.00;96274.50;5019981;28;20042;-76
2022/05/22 05:31:09;;;;;;;5.27;2.00;;;;;;;13.39;100.00;96269.78;5029219;28;20036;-77
2022/05/22 05:33:37;;;;;;;4.07;2.00;;;;;;;13.65;100.00;96265.97;5023927;28;20053;-76
2022/05/22 05:36:12;;;;;;;3.33;1.73;;;;;;;14.08;100.00;96268.88;5028702;28;20062;-76
2022/05/22 05:38:56;;;;;;;6.03;2.60;;;;;;;14.13;100.00;96274.47;5031091;28;20096;-76
2022/05/22 05:41:44;;;;;;;4.87;2.00;;;;;;;14.35;100.00;96257.72;5031883;28;20033;-76
2022/05/22 05:44:11;;;;;;;8.43;2.20;;;;;;;14.49;100.00;96258.72;5033748;28;20073;-77
2022/05/22 05:46:57;;;;;;;7.20;2.43;;;;;;;14.75;100.00;96245.00;5019251;28;20044;-78
2022/05/22 05:49:29;;;;;;;8.50;2.33;;;;;;;15.15;100.00;96239.38;5020936;28;20029;-79
2022/05/22 05:52:15;;;;;;;6.43;2.73;;;;;;;14.92;97.61;96242.16;5014568;28;20049;-78
2022/05/22 05:54:49;;;;;;;4.93;2.20;;;;;;;15.28;98.46;96240.31;5008589;28;20026;-78
2022/05/22 05:57:44;;;;;;;4.07;1.77;;;;;;;15.70;94.50;96238.72;5005929;28;20042;-77
2022/05/22 06:00:13;;;;;;;4.87;1.90;;;;;;;16.01;89.02;96237.53;5010260;28;20033;-78
2022/05/22 06:02:42;;;;;;;5.93;2.00;;;;;;;16.05;87.08;96236.13;5017843;28;20125;-77
2022/05/22 06:05:10;;;;;;;6.00;2.40;;;;;;;16.29;85.33;96242.00;5014895;28;20041;-77
2022/05/22 06:07:36;;;;;;;5.17;2.10;;;;;;;16.42;85.43;96239.41;5009755;28;20108;-79
2022/05/22 06:10:09;;;;;;;6.17;2.07;;;;;;;16.79;79.01;96232.06;5037752;28;20029;-78
2022/05/22 06:12:43;;;;;;;4.07;2.23;;;;;;;17.04;77.22;96225.22;5029709;28;20056;-77
2022/05/22 06:15:10;;;;;;;3.80;2.30;;;;;;;17.15;73.63;96221.16;5036698;28;20132;-78
2022/05/22 06:17:39;;;;;;;7.70;2.60;;;;;;;17.12;73.94;96222.38;5021496;28;20258;-78
2022/05/22 06:20:09;;;;;;;5.88;2.33;;;;;;;17.14;73.54;96230.97;5011847;28;20104;-78
2022/05/22 06:22:39;;;;;;;7.03;2.07;;;;;;;17.29;74.58;96230.00;5024394;28;20059;-77
2022/05/22 06:25:11;;;;;;;7.22;2.30;;;;;;;17.16;73.20;96226.28;5023450;28;20040;-78
2022/05/22 06:27:38;;;;;;;6.75;2.28;;;;;;;17.68;72.47;96224.72;5026848;28;20108;-78
2022/05/22 06:30:13;;;;;;;7.00;2.10;;;;;;;17.80;68.17;96221.47;5019167;28;20056;-76
2022/05/22 06:32:57;;;;;;;6.57;2.83;;;;;;;17.99;66.95;96228.63;5027833;28;20124;-77
2022/05/22 06:35:46;;;;;;;4.97;2.17;;;;;;;18.49;64.93;96222.84;5012486;28;20125;-78
2022/05/22 06:41:41;;;;;;;5.13;2.10;;;;;;;18.50;63.07;96214.63;5032353;28;20121;-78
2022/05/22 06:44:19;;;;;;;4.85;2.10;;;;;;;17.94;64.76;96215.16;5021267;28;20124;-78
2022/05/22 06:47:05;;;;;;;4.80;2.20;;;;;;;18.51;64.48;96210.94;5025628;28;20048;-78
2022/05/22 06:49:52;;;;;;;5.45;2.40;;;;;;;18.38;64.94;96210.97;5032414;28;20045;-78
2022/05/22 06:52:40;;;;;;;3.92;1.90;;;;;;;18.94;60.25;96210.38;5012226;28;20156;-78
2022/05/22 06:55:25;;;;;;;4.57;2.50;;;;;;;19.40;58.92;96203.97;5016303;28;20072;-78
2022/05/22 06:58:14;;;;;;;5.10;2.05;;;;;;;19.53;58.26;96200.41;5018551;28;20192;-78
2022/05/22 07:00:58;;;;;;;4.85;2.17;;;;;;;19.59;56.25;96204.88;5022482;28;20051;-77
2022/05/22 07:03:44;;;;;;;4.10;2.00;;;;;;;20.08;53.53;96200.59;5023407;28;20041;-78
2022/05/22 07:06:36;;;;;;;3.92;1.90;;;;;;;20.30;53.89;96201.00;5021985;28;20041;-78
2022/05/22 07:09:22;;;;;;;5.55;2.10;;;;;;;20.87;51.88;96203.50;5010933;28;20127;-77
2022/05/22 07:11:54;;;;;;;6.28;1.77;;;;;;;20.69;50.88;96201.63;5023296;28;20046;-78
2022/05/22 07:14:33;;;;;;;;;;;;;;;21.11;50.17;96209.75;5027521;28;20832;-79
2022/05/22 07:17:11;;;;;;;3.63;1.70;;;;;;;21.85;48.77;96205.81;5013377;28;19913;-78
2022/05/22 07:19:46;;;;;;;4.47;1.80;;;;;;;21.52;48.55;96211.66;5017494;28;20121;-79
2022/05/22 07:22:31;;;;;;;6.55;1.90;;;;;;;22.30;47.54;96217.84;5018490;28;20510;-79
2022/05/22 07:25:15;;;;;;;3.53;1.48;;;;;;;22.48;46.99;96214.22;5015730;28;20063;-79
2022/05/22 07:28:02;;;;;;;4.65;1.80;;;;;;;23.39;45.31;96211.78;5030321;28;20047;-78
2022/05/22 07:30:40;;;;;;;6.78;2.00;;;;;;;22.86;44.80;96205.63;5016893;28;20038;-78
2022/05/22 07:33:14;;;;;;;4.55;1.90;;;;;;;22.50;45.50;96212.13;5012038;28;20030;-79
2022/05/22 07:36:00;;;;;;;5.95;1.98;;;;;;;22.61;46.91;96207.81;5022732;28;20502;-80
2022/05/22 07:38:26;;;;;;;4.60;1.92;;;;;;;22.21;46.31;96214.72;5027687;28;20033;-79
2022/05/22 07:41:22;;;;;;;4.00;2.00;;;;;;;22.32;46.77;96216.56;5026864;28;20079;-78
2022/05/22 07:44:11;;;;;;;4.22;2.13;;;;;;;23.01;44.78;96202.50;5022567;28;20049;-79
2022/05/22 07:46:51;;;;;;;5.30;2.30;;;;;;;22.51;45.61;96200.38;5033461;28;20029;-79
2022/05/22 07:52:31;;;;;;;3.88;1.48;;;;;;;23.72;42.77;96181.53;5020309;28;20048;-78
2022/05/22 07:55:18;;;;;;;2.97;1.10;;;;;;;24.36;39.70;96175.78;5032727;28;20098;-78
2022/05/22 07:58:04;;;;;;;3.75;1.30;;;;;;;24.52;38.10;96174.13;5032120;28;20039;-79
2022/05/22 08:00:57;;;;;;;4.13;1.73;;;;;;;24.13;40.23;96172.22;5030246;28;20033;-78
2022/05/22 08:03:41;;;;;;;4.68;1.10;;;;;;;24.92;38.15;96163.06;5034920;28;20066;-82
2022/05/22 08:06:11;;;;;;;5.88;1.50;;;;;;;23.81;38.75;96169.31;5020432;28;20617;-79
2022/05/22 08:08:38;;;;;;;4.28;1.67;;;;;;;23.49;39.35;96179.75;5025599;28;20048;-78
2022/05/22 08:11:23;;;;;;;4.20;1.27;;;;;;;24.53;37.81;96160.44;5033829;28;20098;-79
2022/05/22 08:14:03;;;;;;;2.75;1.30;;;;;;;24.54;38.59;96162.06;5053006;28;20055;-78
2022/05/22 08:16:42;;;;;;;3.30;1.38;;;;;;;25.00;39.18;96172.56;5046557;28;20103;-79
2022/05/22 08:19:18;;;;;;;4.38;1.20;;;;;;;24.70;38.63;96171.13;5039302;28;20065;-78
2022/05/22 08:22:10;;;;;;;2.92;1.25;;;;;;;25.62;38.20;96164.88;5018596;28;20034;-80
2022/05/22 08:24:56;;;;;;;1.73;0.90;;;;;;;26.82;34.10;96162.69;5026034;28;20057;-79
2022/05/22 08:27:27;;;;;;;2.40;1.02;;;;;;;26.05;34.13;96160.38;5041130;28;20390;-78
2022/05/22 08:29:54;;;;;;;2.92;1.23;;;;;;;25.89;35.18;96161.34;5038515;28;20133;-79
2022/05/22 08:32:22;;;;;;;2.35;1.10;;;;;;;26.83;34.33;96148.97;5024536;28;20037;-78
2022/05/22 08:34:47;;;;;;;2.25;0.85;;;;;;;26.68;33.33;96152.38;5036581;28;20033;-79
2022/05/22 08:37:23;;;;;;;3.47;1.05;;;;;;;26.90;35.17;96149.50;5031106;28;20030;-79
2022/05/22 08:39:49;;;;;;;2.15;1.00;;;;;;;26.07;33.61;96150.16;5024374;28;20117;-79
2022/05/22 08:42:31;;;;;;;2.65;1.30;;;;;;;26.72;33.33;96141.88;5018384;28;20041;-81
2022/05/22 08:44:57;;;;;;;4.03;1.10;;;;;;;26.41;34.37;96139.03;5047066;28;20037;-79
2022/05/22 08:47:31;;;;;;;2.97;1.00;;;;;;;26.83;35.24;96140.03;5043187;28;20076;-79
2022/05/22 08:50:13;;;;;;;3.47;0.95;;;;;;;27.65;34.77;96132.91;5057047;28;20391;-77
2022/05/22 08:53:04;;;;;;;3.15;1.00;;;;;;;28.24;32.95;96126.94;5046492;28;20508;-79
2022/05/22 09:01:15;;;;;;;5.88;1.23;;;;;;;26.97;33.33;96117.69;5038592;28;20033;-79
2022/05/22 09:03:55;;;;;;;;;;;;;;;27.59;32.79;96106.97;5040752;28;20482;-79
2022/05/22 09:06:30;;;;;;;3.78;1.38;;;;;;;26.61;32.70;96115.94;5025849;28;19913;-80
2022/05/22 09:08:57;;;;;;;5.70;2.92;;;;;;;27.68;32.00;96105.38;5026206;28;20040;-79
2022/05/22 09:11:26;;;;;;;3.97;1.20;;;;;;;27.43;32.35;96115.09;5028262;28;20500;-79
2022/05/22 09:13:55;;;;;;;4.03;1.33;;;;;;;27.11;33.08;96112.59;5039516;28;20033;-79
2022/05/22 09:17:03;;;;;;;4.63;1.48;;;;;;;26.72;32.10;96104.91;5031006;28;20033;-79
2022/05/22 09:19:41;;;;;;;4.78;1.20;;;;;;;25.24;35.51;96109.31;5026653;28;20045;-79
2022/05/22 09:22:28;;;;;;;2.70;1.20;;;;;;;26.89;33.60;96098.50;5027899;28;20072;-78
2022/05/22 09:25:01;;;;;;;6.20;1.88;;;;;;;27.06;32.87;96099.06;5045556;28;20044;-78
2022/05/22 09:27:40;;;;;;;;;;;;;;;27.19;32.35;96095.88;5039956;28;20093;-78
2022/05/22 09:30:33;;;;;;;4.78;1.65;;;;;;;27.04;32.99;96101.25;5038404;28;19920;-79
2022/05/22 09:33:20;;;;;;;2.88;1.27;;;;;;;27.75;30.15;96092.38;5015447;28;20050;-78
2022/05/22 09:36:06;;;;;;;3.30;1.20;;;;;;;28.05;30.02;96093.47;5044166;28;20033;-78
2022/05/22 09:38:47;;;;;;;3.25;0.95;;;;;;;28.89;28.45;96086.41;5016838;28;20045;-77
2022/05/22 09:41:32;;;;;;;3.83;2.25;;;;;;;26.03;33.39;96094.34;5017013;28;20082;-77
2022/05/22 09:44:07;;;;;;;4.18;1.83;;;;;;;26.02;33.59;96085.47;5021151;28;20162;-77
2022/05/22 09:46:36;;;;;;;4.68;2.20;;;;;;;26.37;33.24;96080.50;5040486;28;20105;-77
2022/05/22 09:49:04;;;;;;;2.28;1.10;;;;;;;27.06;32.19;96076.66;5020778;28;20506;-78
2022/05/22 09:51:44;;;;;;;3.17;0.98;;;;;;;28.00;32.04;96074.53;5025968;28;20045;-78
2022/05/22 09:54:47;;;;;;;2.63;1.10;;;;;;;27.77;31.54;96074.06;5019558;28;20044;-78
2022/05/22 09:57:39;;;;;;;4.15;1.23;;;;;;;28.04;31.69;96070.22;5029549;28;20041;-77
2022/05/22 10:00:18;;;;;;;2.17;1.00;;;;;;;27.66;31.29;96070.50;5016225;28;20597;-78
2022/05/22 10:02:49;;;;;;;2.80;1.15;;;;;;;27.54;31.52;96070.00;5044672;28;20096;-78
2022/05/22 10:05:45;;;;;;;3.08;1.20;;;;;;;27.47;31.88;96064.84;5035725;28;20478;-78
2022/05/22 10:08:33;;;;;;;3.50;1.38;;;;;;;27.56;33.68;96069.72;5029055;28;20030;-81
2022/05/22 10:11:25;;;;;;;4.00;0.98;;;;;;;27.20;31.88;96067.03;5019109;28;20479;-81
2022/05/22 10:14:13;;;;;;;;;;;;;;;26.57;32.55;96072.53;5033878;28;20041;-78
2022/05/22 10:16:50;;;;;;;1.85;0.90;;;;;;;27.63;31.88;96067.53;5018010;28;19960;-78
2022/05/22 10:19:19;;;;;;;3.00;1.08;;;;;;;27.82;31.08;96068.63;5004621;28;20191;-78
2022/05/22 10:22:08;;;;;;;2.53;1.10;;;;;;;27.92;29.30;96065.91;5045520;28;20498;-78
2022/05/22 10:24:45;;;;;;;2.38;1.00;;;;;;;28.80;30.03;96056.38;5024908;28;20801;-77
2022/05/22 10:27:33;;;;;;;5.07;1.27;;;;;;;29.02;29.57;96049.81;5041462;28;20079;-77
2022/05/22 10:30:19;;;;;;;3.38;1.17;;;;;;;28.96;30.00;96048.19;5029997;28;20034;-77
2022/05/22 10:33:07;;;;;;;2.80;0.80;;;;;;;29.18;28.97;96051.31;5013661;28;20407;-77
2022/05/22 10:35:51;;;;;;;3.30;1.30;;;;;;;28.69;27.84;96054.84;5038719;28;20076;-77
2022/05/22 10:38:17;;;;;;;4.05;1.20;;;;;;;29.37;27.62;96043.31;5028528;28;20136;-77
2022/05/22 10:43:51;;;;;;;1.95;0.90;;;;;;;29.82;26.56;96046.72;5029573;28;20029;-77
2022/05/22 10:46:17;;;;;;;3.78;1.20;;;;;;;27.54;28.83;96045.69;5019722;28;20072;-77
2022/05/22 10:48:55;;;;;;;2.45;1.08;;;;;;;27.70;29.61;96047.28;5013698;28;20130;-79
2022/05/22 10:51:24;;;;;;;2.38;1.00;;;;;;;27.88;29.59;96045.13;5020341;28;20116;-78
2022/05/22 10:53:59;;;;;;;3.50;1.17;;;;;;;27.84;29.63;96044.84;5001345;28;20028;-77
2022/05/22 10:56:34;;;;;;;3.97;1.10;;;;;;;28.26;29.42;96035.53;5020571;28;20049;-78
2022/05/22 10:59:07;;;;;;;2.88;1.23;;;;;;;27.49;30.40;96035.66;5022923;28;20048;-77
2022/05/22 11:01:36;;;;;;;3.13;1.40;;;;;;;28.94;29.78;96023.28;5016536;28;20112;-78
2022/05/22 11:04:08;;;;;;;2.45;1.00;;;;;;;28.57;29.49;96028.13;5009667;28;20033;-77
2022/05/22 11:06:54;;;;;;;3.88;1.10;;;;;;;28.74;29.81;96022.34;5037653;28;20029;-78
2022/05/22 11:09:25;;;;;;;9.88;7.72;;;;;;;29.03;28.36;96027.06;5017950;28;20045;-77
2022/05/22 11:12:13;;;;;;;7.53;4.10;;;;;;;28.83;27.60;96023.34;5018145;28;20030;-77
2022/05/22 11:14:40;;;;;;;4.90;2.20;;;;;;;28.31;30.55;96015.78;5011046;28;20109;-77
2022/05/22 11:17:22;;;;;;;4.28;2.40;;;;;;;28.20;29.65;95999.59;5025455;28;20463;-77
2022/05/22 11:19:50;;;;;;;;;;;;;;;27.65;30.96;95998.66;5033694;28;20029;-77
2022/05/22 11:22:58;;;;;;;2.63;1.20;;;;;;;28.90;29.62;96002.19;5030495;28;20266;-78
2022/05/22 11:25:52;;;;;;;3.17;1.50;;;;;;;28.37;29.78;96003.81;4994687;28;20032;-77
2022/05/22 11:28:21;;;;;;;1.75;0.90;;;;;;;29.88;28.41;96001.38;5026958;28;20145;-76
2022/05/22 11:30:53;;;;;;;3.42;0.90;;;;;;;29.02;28.81;95993.75;5030017;28;20059;-77
2022/05/22 11:33:23;;;;;;;2.08;1.13;;;;;;;29.55;29.58;95993.03;5024023;28;20034;-76
2022/05/22 11:36:34;;;;;;;2.05;1.02;;;;;;;28.71;28.13;95981.50;5036991;28;20040;-77
2022/05/22 11:39:18;;;;;;;1.30;0.75;;;;;;;29.43;29.68;95976.34;5027235;28;20053;-77
2022/05/22 11:41:49;;;;;;;3.42;1.10;;;;;;;29.71;29.89;95978.28;5025121;28;20542;-82
2022/05/22 11:45:13;;;;;;;2.53;1.08;;;;;;;30.29;27.85;95969.22;5039485;28;20572;-82
2022/05/22 11:47:56;;;;;;;2.97;1.10;;;;;;;28.98;28.09;95967.50;5039827;28;20132;-78
2022/05/22 11:51:05;;;;;;;4.20;1.20;;;;;;;29.89;28.51;95968.56;5032346;28;20037;-76
2022/05/22 11:53:49;;;;;;;10.75;8.90;;;;;;;29.51;28.76;95964.88;5011712;28;20032;-76
2022/05/22 11:56:43;;;;;;;2.30;0.90;;;;;;;29.97;27.46;95964.41;5023616;28;20472;-77
2022/05/22 11:59:33;;;;;;;3.45;0.95;;;;;;;30.17;28.83;95963.34;5033341;28;20029;-77
2022/05/22 12:02:28;;;;;;;2.10;0.82;;;;;;;30.19;28.17;95953.06;5015072;28;20033;-77
2022/05/22 12:05:05;;;;;;;3.35;1.15;;;;;;;29.61;28.61;95945.84;5020050;28;20037;-77
2022/05/22 12:07:55;;;;;;;2.45;1.00;;;;;;;29.08;29.28;95940.38;5036188;28;20716;-77
2022/05/22 12:10:26;;;;;;;2.40;1.00;;;;;;;28.91;29.64;95935.34;5004211;28;20622;-78
2022/05/22 12:13:09;;;;;;;4.30;1.38;;;;;;;28.57;29.36;95936.16;5032294;28;20034;-78
2022/05/22 12:15:50;;;;;;;4.85;1.40;;;;;;;28.72;29.75;95935.22;5012900;28;20243;-77
2022/05/22 12:18:53;;;;;;;2.45;1.10;;;;;;;29.26;29.75;95938.84;5036894;28;20621;-77
2022/05/22 12:21:25;;;;;;;2.00;1.20;;;;;;;29.62;27.76;95933.91;5021688;28;20034;-77
2022/05/22 12:24:10;;;;;;;1.15;0.60;;;;;;;28.71;29.51;95930.09;5017952;28;20040;-77
2022/05/22 12:26:37;;;;;;;2.40;0.93;;;;;;;29.24;29.53;95922.91;5034048;28;20193;-79
2022/05/22 12:29:10;;;;;;;2.45;0.73;;;;;;;27.83;29.40;95915.41;5020665;28;20067;-79